createdAt,value
2023-01-21T00:03:40.070Z,71
2023-01-21T00:13:39.966Z,71
2023-01-21T00:23:39.925Z,71
2023-01-21T00:33:39.923Z,71
2023-01-21T00:43:39.947Z,71
2023-01-21T00:53:39.920Z,71
2023-01-21T01:03:39.952Z,71
2023-01-21T01:13:39.941Z,72
2023-01-21T01:23:39.902Z,72
2023-01-21T01:33:40.363Z,72
2023-01-21T01:43:39.976Z,72
2023-01-21T01:53:40.382Z,72
2023-01-21T02:03:39.976Z,72
2023-01-21T02:13:39.943Z,72
2023-01-21T02:23:39.904Z,72
2023-01-21T02:33:40.365Z,72
2023-01-21T02:43:39.924Z,72
2023-01-21T02:53:40.331Z,72
2023-01-21T03:03:41.335Z,72
2023-01-21T03:13:40.342Z,72
2023-01-21T03:23:39.904Z,72
2023-01-21T03:33:39.911Z,72
2023-01-21T03:43:39.954Z,72
2023-01-21T03:53:39.905Z,72
2023-01-21T04:03:39.915Z,72
2023-01-21T04:13:39.933Z,72
2023-01-21T04:23:39.892Z,73
2023-01-21T04:33:39.909Z,73
2023-01-21T04:43:39.937Z,73
2023-01-21T04:53:40.314Z,73
2023-01-21T05:03:40.362Z,72
2023-01-21T05:13:39.937Z,72
2023-01-21T05:23:39.897Z,72
2023-01-21T05:33:39.924Z,72
2023-01-21T05:43:40.360Z,72
2023-01-21T05:53:40.324Z,72
2023-01-21T06:03:39.991Z,72
2023-01-21T06:13:39.938Z,72
2023-01-21T06:23:39.913Z,72
2023-01-21T06:33:39.921Z,72
2023-01-21T06:43:39.926Z,72
2023-01-21T06:53:39.915Z,72
2023-01-21T07:03:39.938Z,72
2023-01-21T07:13:39.964Z,72
2023-01-21T07:23:39.901Z,72
2023-01-21T07:33:39.936Z,72
2023-01-21T07:43:39.942Z,72
2023-01-21T07:53:39.891Z,72
2023-01-21T08:03:39.926Z,72
2023-01-21T08:13:39.925Z,72
2023-01-21T08:23:39.903Z,71
2023-01-21T08:33:39.886Z,69
2023-01-21T08:43:40.346Z,68
2023-01-21T08:53:41.818Z,67
2023-01-21T09:03:39.923Z,66
2023-01-21T09:13:40.336Z,65
2023-01-21T09:23:39.891Z,64
2023-01-21T09:33:39.871Z,63
2023-01-21T09:43:39.892Z,63
2023-01-21T09:53:39.881Z,61
2023-01-21T10:03:39.958Z,61
2023-01-21T10:13:39.873Z,59
2023-01-21T10:23:41.682Z,59
2023-01-21T10:33:39.865Z,58
2023-01-21T10:43:39.897Z,57
2023-01-21T10:53:39.841Z,56
2023-01-21T11:03:39.839Z,56
2023-01-21T11:13:39.840Z,56
2023-01-21T11:23:39.784Z,54
2023-01-21T11:33:39.832Z,54
2023-01-21T11:43:39.826Z,53
2023-01-21T11:53:40.178Z,53
2023-01-21T12:03:39.816Z,55
2023-01-21T12:13:39.812Z,55
2023-01-21T12:23:40.164Z,55
2023-01-21T12:33:39.771Z,54
2023-01-21T12:43:41.353Z,54
2023-01-21T12:53:39.719Z,53
2023-01-21T13:03:39.758Z,53
2023-01-21T13:13:39.757Z,52
2023-01-21T13:23:39.717Z,51
2023-01-21T13:33:39.738Z,51
2023-01-21T13:43:39.743Z,52
2023-01-21T13:53:40.108Z,54
2023-01-21T14:03:39.692Z,55
2023-01-21T14:13:39.727Z,55
2023-01-21T14:23:39.675Z,56
2023-01-21T14:33:39.688Z,56
2023-01-21T14:43:39.688Z,57
2023-01-21T14:53:39.658Z,57
2023-01-21T15:03:40.114Z,57
2023-01-21T15:13:39.654Z,57
2023-01-21T15:23:40.075Z,58
2023-01-21T15:33:39.696Z,58
2023-01-21T15:43:39.683Z,58
2023-01-21T15:53:40.047Z,59
2023-01-21T16:03:39.683Z,59
2023-01-21T16:13:40.080Z,59
2023-01-21T16:23:39.610Z,59
2023-01-21T16:33:39.654Z,59
2023-01-21T16:43:39.647Z,59
2023-01-21T16:53:40.015Z,60
2023-01-21T17:03:39.641Z,60
2023-01-21T17:13:39.642Z,60
2023-01-21T17:23:39.585Z,60
2023-01-21T17:33:39.613Z,61
2023-01-21T17:43:39.667Z,61
2023-01-21T17:53:39.576Z,61
2023-01-21T18:03:44.596Z,61
2023-01-21T18:13:39.587Z,61
2023-01-21T18:23:41.528Z,61
2023-01-21T18:33:39.596Z,61
2023-01-21T18:43:39.603Z,62
2023-01-21T18:53:39.548Z,62
2023-01-21T19:03:39.553Z,62
2023-01-21T19:13:40.000Z,62
2023-01-21T19:23:39.542Z,62
2023-01-21T19:33:39.999Z,62
2023-01-21T19:43:39.539Z,63
2023-01-21T19:53:39.539Z,63
2023-01-21T20:03:48.129Z,63
2023-01-21T20:13:39.515Z,63
2023-01-21T20:23:39.532Z,63
2023-01-21T20:33:39.541Z,64
2023-01-21T20:43:39.493Z,64
2023-01-21T20:53:39.910Z,64
2023-01-21T21:03:39.541Z,64
2023-01-21T21:13:39.545Z,64
2023-01-21T21:23:39.491Z,64
2023-01-21T21:33:39.498Z,64
2023-01-21T21:43:39.522Z,64
2023-01-21T21:53:39.475Z,65
2023-01-21T22:03:39.936Z,65
2023-01-21T22:13:39.512Z,65
2023-01-21T22:23:39.880Z,66
2023-01-21T22:33:39.508Z,66
2023-01-21T22:43:39.511Z,66
2023-01-21T22:53:39.462Z,66
2023-01-21T23:03:39.924Z,67
2023-01-21T23:13:39.510Z,67
2023-01-21T23:23:39.462Z,67
2023-01-21T23:33:39.477Z,67
2023-01-21T23:43:39.480Z,67
2023-01-21T23:53:39.874Z,67
